Time;durP1;ratioP1;P1;durP2;ratioP2;P2;SDS_P1;SDS_P2;PMS_P1;PMS_P2;Temp;Humidity;BMP_temperature;BMP_pressure;BME280_temperature;BME280_humidity;BME280_pressure;Samples;Min_cycle;Max_cycle;Signal;HPM_P1;HPM_P2
2022/06/09 00:00:15;;;;;;;;;;;;;;;17.17;97.59;94704.59;5093325;28;962;-49
2022/06/09 00:02:44;;;;;;;;;;;;;;;17.17;98.21;94705.44;5093089;28;1028;-49
2022/06/09 00:05:11;;;;;;;;;;;;;;;17.22;97.44;94710.19;5092916;28;1995;-50
2022/06/09 00:07:37;;;;;;;;;;;;;;;17.24;97.67;94712.69;5092579;28;1072;-49
2022/06/09 00:10:07;;;;;;;;;;;;;;;17.20;98.29;94714.97;5092818;28;1029;-50
2022/06/09 00:12:34;;;;;;;;;;;;;;;17.10;99.43;94706.50;5092773;28;1099;-49
2022/06/09 00:15:01;;;;;;;;;;;;;;;17.03;99.37;94711.91;5093278;28;964;-50
2022/06/09 00:17:27;;;;;;;;;;;;;;;17.05;98.16;94709.81;5092404;28;1216;-49
2022/06/09 00:19:53;;;;;;;;;;;;;;;16.95;97.97;94707.56;5091931;28;1630;-49
2022/06/09 00:22:19;;;;;;;;;;;;;;;16.83;98.74;94701.16;5091606;28;1025;-49
2022/06/09 00:24:45;;;;;;;;;;;;;;;16.87;99.03;94702.41;5092701;28;1056;-50
2022/06/09 00:27:12;;;;;;;;;;;;;;;16.93;99.33;94696.13;5092879;28;1993;-49
2022/06/09 00:29:38;;;;;;;;;;;;;;;16.88;100.00;94698.63;5092647;28;1034;-49
2022/06/09 00:32:05;;;;;;;;;;;;;;;16.83;99.40;94700.31;5092930;28;1011;-49
2022/06/09 00:34:31;;;;;;;;;;;;;;;16.90;99.36;94696.59;5092887;28;1023;-50
2022/06/09 00:36:57;;;;;;;;;;;;;;;17.03;99.04;94700.28;5092677;28;961;-49
2022/06/09 00:39:23;;;;;;;;;;;;;;;17.06;98.84;94695.28;5091239;28;1034;-49
2022/06/09 00:41:49;;;;;;;;;;;;;;;17.11;98.28;94698.19;5091389;28;1013;-49
2022/06/09 00:44:21;;;;;;;;;;;;;;;17.18;97.58;94696.25;5095079;28;892;-49
2022/06/09 00:46:50;;;;;;;;;;;;;;;17.22;97.73;94688.56;5096203;28;1940;-50
2022/06/09 00:49:18;;;;;;;;;;;;;;;17.24;97.67;94686.47;5096024;28;1182;-49
2022/06/09 00:51:50;;;;;;;;;;;;;;;17.26;98.16;94681.69;5095880;28;1028;-49
2022/06/09 00:54:16;;;;;;;;;;;;;;;17.22;98.20;94676.94;5095982;28;1099;-49
2022/06/09 00:56:46;;;;;;;;;;;;;;;17.22;98.15;94677.75;5095871;28;1013;-49
2022/06/09 00:59:15;;;;;;;;;;;;;;;17.30;97.17;94680.25;5095766;28;1262;-49
2022/06/09 01:01:41;;;;;;;;;;;;;;;17.29;96.81;94675.06;5096133;28;1057;-50
2022/06/09 01:04:10;;;;;;;;;;;;;;;17.33;96.60;94684.38;5096003;28;1087;-50
2022/06/09 01:06:59;;;;;;;;;;;;;;;17.36;95.91;94678.56;5095926;28;1993;-50
2022/06/09 01:09:26;;;;;;;;;;;;;;;17.34;95.97;94680.66;5087363;28;1209;-50
2022/06/09 01:11:54;;;;;;;;;;;;;;;17.28;96.46;94674.22;5096010;28;941;-50
2022/06/09 01:14:23;;;;;;;;;;;;;;;17.19;97.29;94672.81;5094900;28;988;-50
2022/06/09 01:16:54;;;;;;;;;;;;;;;17.15;97.59;94671.59;5095925;28;1041;-50
2022/06/09 01:19:34;;;;;;;;;;;;;;;17.03;98.23;94665.16;5095726;28;1068;-50
2022/06/09 01:22:00;;;;;;;;;;;;;;;17.05;97.61;94665.78;5095465;28;1103;-50
2022/06/09 01:24:26;;;;;;;;;;;;;;;17.05;97.93;94671.19;5095321;28;1867;-50
2022/06/09 01:26:58;;;;;;;;;;;;;;;17.06;97.92;94678.25;5095459;28;1909;-51
2022/06/09 01:29:30;;;;;;;;;;;;;;;16.98;98.22;94665.81;5095368;28;1245;-50
2022/06/09 01:32:08;;;;;;;;;;;;;;;16.88;98.76;94663.53;5095840;28;1016;-50
2022/06/09 01:34:42;;;;;;;;;;;;;;;16.80;98.27;94658.34;5095300;28;1036;-51
2022/06/09 01:37:14;;;;;;;;;;;;;;;16.80;99.00;94669.16;5095579;28;1132;-50
2022/06/09 01:39:57;;;;;;;;;;;;;;;16.72;98.90;94658.59;5095236;28;1147;-50
2022/06/09 01:42:37;;;;;;;;;;;;;;;16.73;97.85;94649.44;5095463;28;1052;-50
2022/06/09 01:45:09;;;;;;;;;;;;;;;16.75;97.65;94648.19;5095147;28;1906;-50
2022/06/09 01:47:39;;;;;;;;;;;;;;;16.83;97.48;94657.97;5094651;28;1059;-51
2022/06/09 01:50:06;;;;;;;;;;;;;;;16.88;96.82;94655.44;5095408;28;1016;-50
2022/06/09 01:52:34;;;;;;;;;;;;;;;16.90;96.57;94655.22;5094644;28;1036;-51
2022/06/09 01:55:02;;;;;;;;;;;;;;;16.88;97.54;94658.13;5093720;28;1104;-51
2022/06/09 01:57:31;;;;;;;;;;;;;;;16.83;97.12;94649.00;5094929;28;1204;-56
2022/06/09 02:00:00;;;;;;;;;;;;;;;16.81;97.13;94653.78;5094771;28;1034;-50
2022/06/09 02:02:32;;;;;;;;;;;;;;;16.79;97.33;94659.41;5095360;28;988;-50
2022/06/09 02:05:01;;;;;;;;;;;;;;;16.71;96.09;94654.22;5094564;28;1905;-50
2022/06/09 02:07:29;;;;;;;;;;;;;;;16.65;95.79;94652.38;5114729;28;1232;-50
2022/06/09 02:09:55;;;;;;;;;;;;;;;16.64;96.37;94650.69;5095390;28;1056;-50
2022/06/09 02:12:23;;;;;;;;;;;;;;;16.61;95.70;94649.25;5095033;28;1045;-50
2022/06/09 02:14:50;;;;;;;;;;;;;;;16.54;96.32;94651.97;5094446;28;1040;-50
2022/06/09 02:17:17;;;;;;;;;;;;;;;16.54;96.66;94651.97;5094590;28;1072;-50
2022/06/09 02:19:43;;;;;;;;;;;;;;;16.52;96.64;94661.31;5094016;28;1318;-50
2022/06/09 02:22:10;;;;;;;;;;;;;;;16.41;96.99;94657.41;5093200;28;1044;-50
2022/06/09 02:24:37;;;;;;;;;;;;;;;16.33;96.07;94660.28;5093995;28;1012;-50
2022/06/09 02:27:03;;;;;;;;;;;;;;;16.31;96.09;94651.56;5094517;28;1902;-50
2022/06/09 02:29:29;;;;;;;;;;;;;;;16.31;95.64;94654.28;5093857;28;1951;-50
2022/06/09 02:31:55;;;;;;;;;;;;;;;16.36;96.17;94649.09;5094663;28;968;-50
2022/06/09 02:34:21;;;;;;;;;;;;;;;16.40;95.82;94650.31;5092790;28;1017;-50
2022/06/09 02:36:48;;;;;;;;;;;;;;;16.33;96.43;94653.03;5093012;28;1083;-50
2022/06/09 02:39:14;;;;;;;;;;;;;;;16.29;96.25;94650.97;5093925;28;1038;-49
2022/06/09 02:41:40;;;;;;;;;;;;;;;16.14;95.35;94646.63;5094473;28;1127;-49
2022/06/09 02:44:06;;;;;;;;;;;;;;;15.94;96.04;94646.59;5093979;28;2000;-49
2022/06/09 02:46:32;;;;;;;;;;;;;;;15.95;96.58;94650.13;5094262;28;1906;-49
2022/06/09 02:48:59;;;;;;;;;;;;;;;16.03;96.34;94643.69;5093467;28;1175;-49
2022/06/09 02:51:27;;;;;;;;;;;;;;;16.05;95.75;94652.41;5094078;28;1032;-50
2022/06/09 02:53:57;;;;;;;;;;;;;;;15.98;95.55;94647.84;5093512;28;1207;-50
2022/06/09 02:56:24;;;;;;;;;;;;;;;15.95;95.65;94653.69;5093846;28;1075;-49
2022/06/09 02:58:50;;;;;;;;;;;;;;;15.86;95.24;94656.75;5093369;28;1161;-50
2022/06/09 03:01:16;;;;;;;;;;;;;;;15.77;94.71;94656.97;5093837;28;1205;-49
2022/06/09 03:03:42;;;;;;;;;;;;;;;15.60;95.53;94661.03;5093392;28;945;-49
2022/06/09 03:06:09;;;;;;;;;;;;;;;15.56;95.60;94657.94;5093428;28;1905;-49
2022/06/09 03:08:35;;;;;;;;;;;;;;;15.57;95.68;94664.13;5093097;28;1232;-49
2022/06/09 03:11:01;;;;;;;;;;;;;;;15.60;96.88;94669.94;5093648;28;1052;-50
2022/06/09 03:13:27;;;;;;;;;;;;;;;15.64;96.83;94665.00;5093336;28;1012;-49
2022/06/09 03:15:54;;;;;;;;;;;;;;;15.66;97.51;94673.69;5093575;28;1038;-49
2022/06/09 03:18:20;;;;;;;;;;;;;;;15.66;97.64;94668.31;5093229;28;981;-50
2022/06/09 03:20:47;;;;;;;;;;;;;;;15.75;98.28;94671.69;5093479;28;944;-49
2022/06/09 03:23:14;;;;;;;;;;;;;;;15.90;97.43;94676.91;5093483;28;1028;-50
2022/06/09 03:25:42;;;;;;;;;;;;;;;15.77;96.07;94678.53;5092069;28;1901;-50
2022/06/09 03:28:08;;;;;;;;;;;;;;;15.76;97.26;94679.56;5093472;28;1248;-50
2022/06/09 03:30:34;;;;;;;;;;;;;;;15.80;97.06;94674.56;5091892;28;1072;-50
2022/06/09 03:33:01;;;;;;;;;;;;;;;15.88;97.19;94681.63;5093284;28;1039;-50
2022/06/09 03:35:27;;;;;;;;;;;;;;;15.88;97.11;94679.78;5093410;28;1071;-49
2022/06/09 03:37:53;;;;;;;;;;;;;;;15.81;97.93;94681.63;5093268;28;1092;-49
2022/06/09 03:40:20;;;;;;;;;;;;;;;15.91;97.04;94687.44;5093173;28;1247;-50
2022/06/09 03:42:46;;;;;;;;;;;;;;;15.94;97.41;94678.97;5093361;28;953;-50
2022/06/09 03:45:13;;;;;;;;;;;;;;;15.98;98.25;94677.50;5093029;28;1910;-49
2022/06/09 03:47:39;;;;;;;;;;;;;;;16.15;97.95;94672.53;5092174;28;1019;-49
2022/06/09 03:50:07;;;;;;;;;;;;;;;16.23;97.62;94663.41;5092951;28;1244;-49
2022/06/09 03:52:33;;;;;;;;;;;;;;;16.28;98.51;94669.03;5093289;28;1035;-50
2022/06/09 03:54:59;;;;;;;;;;;;;;;16.38;97.56;94666.72;5092651;28;1060;-50
2022/06/09 03:57:25;;;;;;;;;;;;;;;16.51;97.54;94660.47;5093000;28;1195;-50
2022/06/09 03:59:51;;;;;;;;;;;;;;;16.63;98.03;94666.06;5092769;28;1144;-50
2022/06/09 04:02:17;;;;;;;;;;;;;;;16.71;98.41;94670.41;5093227;28;1024;-50
2022/06/09 04:04:44;;;;;;;;;;;;;;;16.81;97.67;94675.38;5092786;28;1165;-51
2022/06/09 04:07:11;;;;;;;;;;;;;;;16.79;97.98;94670.19;5074479;28;1898;-50
2022/06/09 04:09:37;;;;;;;;;;;;;;;16.76;97.70;94666.03;5085038;28;1160;-50
2022/06/09 04:12:04;;;;;;;;;;;;;;;16.81;98.04;94665.41;5093212;28;1527;-50
2022/06/09 04:14:30;;;;;;;;;;;;;;;16.82;97.93;94674.34;5092767;28;1111;-50
2022/06/09 04:16:56;;;;;;;;;;;;;;;16.89;98.61;94670.59;5092873;28;1083;-50
2022/06/09 04:19:23;;;;;;;;;;;;;;;16.89;98.86;94672.50;5095264;28;1053;-50
2022/06/09 04:21:50;;;;;;;;;;;;;;;17.01;98.83;94681.56;5096944;28;1052;-50
2022/06/09 04:24:16;;;;;;;;;;;;;;;17.05;98.40;94674.72;5095326;28;1463;-50
2022/06/09 04:26:44;;;;;;;;;;;;;;;17.17;97.14;94681.13;5095423;28;2009;-50
2022/06/09 04:29:13;;;;;;;;;;;;;;;17.28;97.20;94676.09;5096444;28;1359;-49
2022/06/09 04:31:40;;;;;;;;;;;;;;;17.37;95.23;94667.50;5096672;28;1039;-50
2022/06/09 04:34:06;;;;;;;;;;;;;;;17.43;95.14;94673.09;5095437;28;1083;-49
2022/06/09 04:36:32;;;;;;;;;;;;;;;17.52;95.47;94675.34;5096247;28;1040;-49
2022/06/09 04:38:59;;;;;;;;;;;;;;;17.52;95.58;94675.34;5094960;28;1174;-49
2022/06/09 04:41:25;;;;;;;;;;;;;;;17.41;94.81;94670.63;5095355;28;1083;-50
2022/06/09 04:43:51;;;;;;;;;;;;;;;17.39;95.06;94667.31;5096420;28;1024;-50
2022/06/09 04:46:19;;;;;;;;;;;;;;;17.37;95.53;94667.50;5096183;28;1913;-50
2022/06/09 04:48:45;;;;;;;;;;;;;;;17.47;94.91;94674.34;5096241;28;1107;-49
2022/06/09 04:51:14;;;;;;;;;;;;;;;17.56;93.73;94679.28;5095974;28;1063;-50
2022/06/09 04:53:40;;;;;;;;;;;;;;;17.62;93.85;94668.66;5095806;28;1074;-49
2022/06/09 04:56:07;;;;;;;;;;;;;;;17.52;94.40;94666.41;5096358;28;1098;-50
2022/06/09 04:58:33;;;;;;;;;;;;;;;17.47;95.50;94672.47;5095824;28;1096;-49
2022/06/09 05:00:59;;;;;;;;;;;;;;;17.55;94.18;94679.50;5096236;28;987;-49
2022/06/09 05:03:25;;;;;;;;;;;;;;;17.52;93.95;94669.94;5095688;28;1202;-50
2022/06/09 05:05:51;;;;;;;;;;;;;;;17.44;94.11;94674.78;5095582;28;1914;-49
2022/06/09 05:08:17;;;;;;;;;;;;;;;17.48;94.34;94671.41;5095959;28;1040;-50
2022/06/09 05:10:44;;;;;;;;;;;;;;;17.45;94.82;94669.13;5095748;28;1011;-50
2022/06/09 05:13:11;;;;;;;;;;;;;;;17.51;95.87;94664.75;5095516;28;1471;-50
2022/06/09 05:15:43;;;;;;;;;;;;;;;17.70;94.08;94658.41;5095508;28;1106;-48
2022/06/09 05:18:11;;;;;;;;;;;;;;;17.83;93.21;94662.91;5096053;28;958;-50
2022/06/09 05:20:37;;;;;;;;;;;;;;;17.87;93.42;94666.88;5095346;28;1089;-49
2022/06/09 05:23:03;;;;;;;;;;;;;;;17.86;90.38;94659.78;5095651;28;1128;-49
2022/06/09 05:25:29;;;;;;;;;;;;;;;17.80;92.58;94662.53;5095182;28;1992;-49
2022/06/09 05:27:55;;;;;;;;;;;;;;;17.82;94.02;94665.84;5095750;28;962;-50
2022/06/09 05:30:23;;;;;;;;;;;;;;;17.86;90.22;94664.38;5095510;28;992;-49
2022/06/09 05:32:49;;;;;;;;;;;;;;;17.81;91.08;94664.16;5095292;28;1033;-50
2022/06/09 05:35:16;;;;;;;;;;;;;;;17.68;90.01;94663.22;5095686;28;971;-49
2022/06/09 05:45:58;;;;;;;;;;;;;;;18.11;89.52;94651.69;5095030;28;1913;-50
2022/06/09 05:48:24;;;;;;;;;;;;;;;18.34;88.52;94663.81;5095339;28;977;-49
2022/06/09 05:50:51;;;;;;;;;;;;;;;18.66;88.73;94655.59;5094898;28;1067;-50
2022/06/09 05:53:17;;;;;;;;;;;;;;;18.81;87.85;94675.06;5095012;28;1086;-49
2022/06/09 05:55:43;;;;;;;;;;;;;;;18.70;86.52;94670.34;5094959;28;1073;-49
2022/06/09 05:58:10;;;;;;;;;;;;;;;18.37;88.87;94663.38;5094770;28;1124;-49
2022/06/09 06:00:37;;;;;;;;;;;;;;;18.36;90.42;94663.59;5095181;28;1024;-49
2022/06/09 06:03:03;;;;;;;;;;;;;;;18.38;89.41;94659.59;5094791;28;1061;-49
2022/06/09 06:08:13;;;;;;;;;;;;;;;18.59;89.89;94661.09;5115276;28;948;-49
2022/06/09 06:10:40;;;;;;;;;;;;;;;18.83;88.87;94662.13;5115081;28;1048;-49
2022/06/09 06:13:06;;;;;;;;;;;;;;;18.99;87.27;94660.72;5110723;28;1082;-49
2022/06/09 06:15:32;;;;;;;;;;;;;;;18.80;87.28;94654.47;5094883;28;1075;-49
2022/06/09 06:18:02;;;;;;;;;;;;;;;18.84;88.92;94663.78;5094404;28;1072;-50
2022/06/09 06:20:29;;;;;;;;;;;;;;;18.78;89.61;94652.97;5094748;28;1073;-49
2022/06/09 06:22:55;;;;;;;;;;;;;;;18.64;88.46;94657.72;5094334;28;1030;-49
2022/06/09 06:25:22;;;;;;;;;;;;;;;18.53;89.36;94661.97;5094164;28;1988;-49
2022/06/09 06:27:49;;;;;;;;;;;;;;;18.60;89.39;94651.09;5094285;28;1192;-49
2022/06/09 06:30:15;;;;;;;;;;;;;;;18.65;87.71;94645.84;5093412;28;1003;-49
2022/06/09 06:32:41;;;;;;;;;;;;;;;18.64;89.30;94646.88;5094151;28;1133;-49
2022/06/09 06:35:08;;;;;;;;;;;;;;;18.81;89.62;94649.88;5093245;28;1048;-49
2022/06/09 06:37:34;;;;;;;;;;;;;;;19.04;87.12;94654.63;5094317;28;968;-50
2022/06/09 06:40:00;;;;;;;;;;;;;;;19.04;87.03;94646.47;5094174;28;1012;-50
2022/06/09 06:42:27;;;;;;;;;;;;;;;18.95;86.76;94647.84;5092416;28;1031;-50
2022/06/09 06:44:53;;;;;;;;;;;;;;;19.27;86.13;94651.22;5093906;28;1020;-50
2022/06/09 06:47:19;;;;;;;;;;;;;;;19.64;84.40;94640.31;5092864;28;1906;-48
2022/06/09 06:49:45;;;;;;;;;;;;;;;19.48;81.90;94641.75;5094104;28;960;-49
2022/06/09 06:52:11;;;;;;;;;;;;;;;19.21;81.60;94641.28;5092668;28;1091;-49
2022/06/09 06:54:38;;;;;;;;;;;;;;;19.22;84.76;94641.06;5093429;28;1858;-49
2022/06/09 06:57:05;;;;;;;;;;;;;;;19.31;84.15;94647.84;5094012;28;988;-49
2022/06/09 06:59:32;;;;;;;;;;;;;;;19.51;85.20;94644.84;5093662;28;1069;-49
2022/06/09 07:01:58;;;;;;;;;;;;;;;19.56;84.99;94641.47;5093514;28;1143;-49
2022/06/09 07:04:25;;;;;;;;;;;;;;;19.53;85.02;94641.09;5092467;28;1196;-49
2022/06/09 07:06:51;;;;;;;;;;;;;;;19.89;81.54;94634.75;5077486;28;1995;-49
2022/06/09 07:09:18;;;;;;;;;;;;;;;20.21;81.67;94629.88;5073792;28;991;-49
2022/06/09 07:11:45;;;;;;;;;;;;;;;20.70;81.10;94627.00;5073368;28;1028;-49
2022/06/09 07:14:11;;;;;;;;;;;;;;;20.85;80.59;94626.50;5084319;28;1167;-50
2022/06/09 07:16:38;;;;;;;;;;;;;;;21.07;79.43;94626.69;5092232;28;1016;-50
2022/06/09 07:19:05;;;;;;;;;;;;;;;20.61;77.28;94625.69;5092101;28;1878;-50
2022/06/09 07:21:31;;;;;;;;;;;;;;;21.10;79.01;94626.22;5093489;28;1048;-50
2022/06/09 07:23:58;;;;;;;;;;;;;;;21.57;78.38;94619.84;5091821;28;1174;-49
2022/06/09 07:26:24;;;;;;;;;;;;;;;21.78;77.51;94611.00;5093262;28;1915;-49
2022/06/09 07:28:51;;;;;;;;;;;;;;;21.96;77.05;94615.41;5093478;28;1668;-49
2022/06/09 07:31:18;;;;;;;;;;;;;;;22.06;75.30;94611.22;5092133;28;1005;-50
2022/06/09 07:33:44;;;;;;;;;;;;;;;22.00;75.73;94602.13;5091851;28;966;-50
2022/06/09 07:36:12;;;;;;;;;;;;;;;22.12;77.15;94602.91;5092186;28;1040;-50
2022/06/09 07:38:39;;;;;;;;;;;;;;;22.26;76.21;94600.69;5093078;28;1153;-50
2022/06/09 07:41:06;;;;;;;;;;;;;;;22.12;78.34;94602.91;5093338;28;1088;-50
2022/06/09 07:43:33;;;;;;;;;;;;;;;22.19;76.52;94600.00;5092755;28;1214;-51
2022/06/09 07:45:59;;;;;;;;;;;;;;;21.76;73.84;94596.81;5091937;28;1985;-51
2022/06/09 07:48:26;;;;;;;;;;;;;;;21.79;78.23;94595.50;5092988;28;1099;-50
2022/06/09 07:50:52;;;;;;;;;;;;;;;22.03;77.19;94575.25;5093090;28;2666;-50
2022/06/09 07:53:21;;;;;;;;;;;;;;;22.31;76.42;94575.44;5092286;28;2500;-50
2022/06/09 07:55:48;;;;;;;;;;;;;;;22.50;76.57;94573.28;5095641;28;1033;-49
2022/06/09 07:58:17;;;;;;;;;;;;;;;22.60;75.54;94565.25;5095877;28;1559;-52
2022/06/09 08:00:43;;;;;;;;;;;;;;;22.59;76.93;94566.31;5097142;28;1044;-49
2022/06/09 08:03:24;;;;;;;;;;;;;;;22.75;75.74;94573.66;5096985;28;1040;-48
2022/06/09 08:05:51;;;;;;;;;;;;;;;22.72;73.74;94563.25;5096849;28;1997;-49
2022/06/09 08:08:17;;;;;;;;;;;;;;;22.50;73.25;94552.31;5096989;28;1029;-48
2022/06/09 08:10:44;;;;;;;;;;;;;;;22.58;76.15;94549.16;5097352;28;1086;-48
2022/06/09 08:13:11;;;;;;;;;;;;;;;22.59;75.21;94555.44;5095899;28;1739;-49
2022/06/09 08:15:38;;;;;;;;;;;;;;;22.71;74.63;94552.59;5096927;28;1042;-48
2022/06/09 08:18:05;;;;;;;;;;;;;;;22.78;74.95;94553.25;5096884;28;1182;-49
2022/06/09 08:20:32;;;;;;;;;;;;;;;22.94;75.28;94548.84;5096995;28;1051;-48
2022/06/09 08:23:03;;;;;;;;;;;;;;;23.00;71.78;94545.91;5095649;28;1104;-49
2022/06/09 08:25:29;;;;;;;;;;;;;;;22.96;72.99;94549.41;5096282;28;1988;-49
2022/06/09 08:27:57;;;;;;;;;;;;;;;22.80;72.17;94542.91;5096060;28;1535;-49
2022/06/09 08:30:23;;;;;;;;;;;;;;;22.80;70.45;94542.91;5095686;28;1185;-51
2022/06/09 08:32:49;;;;;;;;;;;;;;;22.85;73.13;94532.09;5096697;28;972;-49
2022/06/09 08:35:17;;;;;;;;;;;;;;;22.99;74.87;94529.78;5096317;28;999;-49
2022/06/09 08:37:45;;;;;;;;;;;;;;;23.26;73.68;94529.03;5096283;28;1197;-49
2022/06/09 08:40:13;;;;;;;;;;;;;;;23.42;73.65;94519.97;5096280;28;910;-48
2022/06/09 08:42:58;;;;;;;;;;;;;;;23.75;73.47;94509.91;5096692;28;954;-48
2022/06/09 08:45:28;;;;;;;;;;;;;;;24.00;73.57;94509.34;5096242;28;1906;-48
2022/06/09 08:47:54;;;;;;;;;;;;;;;23.87;68.16;94517.97;5096126;28;1187;-48
2022/06/09 08:50:20;;;;;;;;;;;;;;;23.93;73.57;94512.28;5095086;28;1032;-49
2022/06/09 08:52:55;;;;;;;;;;;;;;;24.10;72.33;94506.69;5096393;28;953;-49
2022/06/09 08:55:21;;;;;;;;;;;;;;;24.19;70.60;94504.31;5095884;28;1032;-48
2022/06/09 08:57:48;;;;;;;;;;;;;;;24.36;72.95;94507.69;5095759;28;1096;-49
2022/06/09 09:00:16;;;;;;;;;;;;;;;24.46;68.15;94509.66;5095256;28;1012;-48
2022/06/09 09:02:49;;;;;;;;;;;;;;;24.65;70.52;94506.53;5096239;28;1022;-48
2022/06/09 09:05:23;;;;;;;;;;;;;;;24.51;66.20;94501.53;5095166;28;1914;-49
2022/06/09 09:07:51;;;;;;;;;;;;;;;24.60;68.30;94490.91;5096012;28;1130;-48
2022/06/09 09:10:17;;;;;;;;;;;;;;;24.69;69.21;94494.78;5096066;28;1036;-48
2022/06/09 09:12:58;;;;;;;;;;;;;;;24.90;68.21;94498.44;5095655;28;1262;-48
2022/06/09 09:15:36;;;;;;;;;;;;;;;25.09;67.14;94485.13;5095831;28;1019;-48
2022/06/09 09:18:35;;;;;;;;;;;;;;;25.19;65.62;94480.78;5095808;28;1038;-48
2022/06/09 09:21:05;;;;;;;;;;;;;;;25.02;64.85;94481.00;5061881;28;1162;-48
2022/06/09 09:23:40;;;;;;;;;;;;;;;24.88;65.49;94480.69;5095806;28;1204;-48
2022/06/09 09:26:23;;;;;;;;;;;;;;;24.83;65.86;94472.44;5095646;28;1984;-48
2022/06/09 09:28:54;;;;;;;;;;;;;;;24.80;64.08;94476.53;5095600;28;997;-48
2022/06/09 09:31:20;;;;;;;;;;;;;;;24.82;64.68;94468.09;5095874;28;1105;-48
2022/06/09 09:33:46;;;;;;;;;;;;;;;24.84;63.38;94469.44;5095691;28;937;-48
2022/06/09 09:36:18;;;;;;;;;;;;;;;24.93;65.84;94475.22;5095377;28;1099;-48
2022/06/09 09:38:47;;;;;;;;;;;;;;;25.05;60.29;94470.34;5094986;28;1851;-48
2022/06/09 09:41:28;;;;;;;;;;;;;;;25.10;61.94;94459.44;5095215;28;1024;-48
2022/06/09 09:43:55;;;;;;;;;;;;;;;25.33;65.35;94460.06;5095634;28;1039;-48
2022/06/09 09:46:25;;;;;;;;;;;;;;;25.28;65.06;94454.56;5095380;28;1909;-48
2022/06/09 09:48:51;;;;;;;;;;;;;;;25.37;61.48;94446.66;5095032;28;955;-48
2022/06/09 09:51:30;;;;;;;;;;;;;;;25.51;61.88;94445.03;5095200;28;1032;-48
2022/06/09 09:53:56;;;;;;;;;;;;;;;25.60;58.92;94450.81;5094989;28;929;-48
2022/06/09 09:56:36;;;;;;;;;;;;;;;25.07;59.01;94443.53;5094958;28;1036;-48
2022/06/09 09:59:03;;;;;;;;;;;;;;;24.77;60.40;94437.97;5094727;28;1211;-49
2022/06/09 10:08:35;;;;;;;;;;;;;;;24.88;61.18;94434.19;5094926;28;976;-48
2022/06/09 10:09:53;;;;;;;;;;;;;;;25.04;59.42;94432.31;5094697;28;1116;-48
2022/06/09 10:12:28;;;;;;;;;;;;;;;25.14;56.02;94433.19;5094995;28;992;-48
2022/06/09 10:14:57;;;;;;;;;;;;;;;25.17;52.10;94429.06;5094567;28;1862;-49
2022/06/09 10:17:23;;;;;;;;;;;;;;;25.08;55.62;94426.06;5093454;28;1036;-49
2022/06/09 10:19:54;;;;;;;;;;;;;;;24.93;55.43;94428.75;5094578;28;999;-49
2022/06/09 10:22:22;;;;;;;;;;;;;;;24.73;53.36;94432.22;5094968;28;1036;-48
2022/06/09 10:24:59;;;;;;;;;;;;;;;24.72;57.66;94431.41;5094112;28;1141;-48
2022/06/09 10:27:28;;;;;;;;;;;;;;;24.71;55.46;94424.28;5094307;28;1988;-48
2022/06/09 10:29:57;;;;;;;;;;;;;;;24.68;58.82;94427.56;5094852;28;1037;-48
2022/06/09 10:32:33;;;;;;;;;;;;;;;24.73;58.39;94424.03;5094494;28;1032;-48
2022/06/09 10:35:06;;;;;;;;;;;;;;;24.68;60.06;94419.38;5094257;28;1048;-48
2022/06/09 10:37:44;;;;;;;;;;;;;;;24.56;57.45;94424.22;5094324;28;974;-48
2022/06/09 10:40:28;;;;;;;;;;;;;;;24.62;57.06;94419.59;5094319;28;1016;-48
2022/06/09 10:42:54;;;;;;;;;;;;;;;24.70;59.03;94419.94;5094232;28;1037;-48
2022/06/09 10:45:32;;;;;;;;;;;;;;;24.75;60.42;94419.09;5094171;28;1982;-48
2022/06/09 10:56:40;;;;;;;;;;;;;;;24.51;60.26;94405.91;5093670;28;1898;-48
2022/06/09 10:59:06;;;;;;;;;;;;;;;24.44;61.70;94399.84;5093626;28;1120;-49
2022/06/09 11:01:33;;;;;;;;;;;;;;;24.36;62.71;94389.41;5093670;28;1025;-48
2022/06/09 11:04:01;;;;;;;;;;;;;;;24.24;62.33;94380.59;5093323;28;1044;-48
2022/06/09 11:06:34;;;;;;;;;;;;;;;24.19;61.53;94392.34;5093504;28;1988;-48
2022/06/09 11:09:15;;;;;;;;;;;;;;;24.22;62.12;94385.50;5093747;28;1310;-49
2022/06/09 11:11:44;;;;;;;;;;;;;;;24.46;62.53;94378.53;5093950;28;964;-49
2022/06/09 11:14:29;;;;;;;;;;;;;;;24.70;62.41;94378.94;5094046;28;954;-49
2022/06/09 11:16:58;;;;;;;;;;;;;;;24.99;60.11;94377.66;5093825;28;976;-49
2022/06/09 11:19:50;;;;;;;;;;;;;;;25.38;62.00;94382.63;5092832;28;2753;-50
2022/06/09 11:22:35;;;;;;;;;;;;;;;25.32;61.04;94379.06;5062540;28;1089;-50
2022/06/09 11:25:09;;;;;;;;;;;;;;;25.25;60.77;94375.78;5093546;28;1091;-50
2022/06/09 11:27:53;;;;;;;;;;;;;;;25.25;59.04;94373.03;5093147;28;1906;-50
2022/06/09 11:30:43;;;;;;;;;;;;;;;25.27;59.67;94370.84;5093590;28;957;-50
2022/06/09 11:33:27;;;;;;;;;;;;;;;25.28;59.67;94369.78;5093856;28;1011;-50
2022/06/09 11:35:53;;;;;;;;;;;;;;;25.42;58.52;94365.41;5093115;28;964;-49
2022/06/09 11:38:22;;;;;;;;;;;;;;;25.36;59.81;94361.00;5092476;28;2859;-49
2022/06/09 11:40:58;;;;;;;;;;;;;;;25.25;57.88;94353.91;5093220;28;3291;-49
2022/06/09 11:43:24;;;;;;;;;;;;;;;25.05;56.59;94349.22;5092727;28;1080;-49
2022/06/09 11:45:53;;;;;;;;;;;;;;;24.84;57.94;94346.44;5092773;28;2880;-49
2022/06/09 11:48:30;;;;;;;;;;;;;;;25.22;57.27;94338.81;5092663;28;1165;-49
2022/06/09 11:50:57;;;;;;;;;;;;;;;25.24;59.61;94336.66;5092887;28;1546;-49
2022/06/09 11:53:25;;;;;;;;;;;;;;;25.06;58.89;94323.50;5092813;28;905;-48
2022/06/09 11:55:57;;;;;;;;;;;;;;;25.10;58.00;94325.41;5093189;28;1033;-49
2022/06/09 11:58:36;;;;;;;;;;;;;;;25.36;58.75;94311.75;5092538;28;2912;-49
2022/06/09 12:01:20;;;;;;;;;;;;;;;25.27;56.94;94313.41;5092652;28;1840;-49
2022/06/09 12:04:02;;;;;;;;;;;;;;;25.00;55.51;94311.72;5093033;28;1527;-49
2022/06/09 12:07:01;;;;;;;;;;;;;;;24.83;57.39;94308.44;5104195;28;1909;-48
2022/06/09 12:09:27;;;;;;;;;;;;;;;24.68;56.15;94307.31;5049759;28;1245;-49
2022/06/09 12:11:55;;;;;;;;;;;;;;;24.60;56.34;94310.56;5093174;28;964;-49
2022/06/09 12:14:24;;;;;;;;;;;;;;;24.54;56.08;94306.19;5093223;28;1023;-49
2022/06/09 12:16:56;;;;;;;;;;;;;;;24.53;56.19;94296.34;5092969;28;956;-49
2022/06/09 12:19:28;;;;;;;;;;;;;;;24.59;59.54;94289.00;5092598;28;1133;-49
2022/06/09 12:22:17;;;;;;;;;;;;;;;24.57;58.48;94292.00;5093170;28;1032;-49
2022/06/09 12:25:02;;;;;;;;;;;;;;;24.49;56.29;94292.47;5092536;28;1433;-49
2022/06/09 12:27:37;;;;;;;;;;;;;;;24.47;57.67;94281.81;5092613;28;1910;-49
2022/06/09 12:30:03;;;;;;;;;;;;;;;24.85;59.29;94273.44;5093109;28;1032;-49
2022/06/09 12:32:29;;;;;;;;;;;;;;;25.08;56.48;94272.91;5091775;28;949;-50
2022/06/09 12:34:55;;;;;;;;;;;;;;;25.21;55.02;94270.72;5092964;28;2849;-50
2022/06/09 12:37:23;;;;;;;;;;;;;;;25.31;54.50;94266.09;5092610;28;1093;-49
2022/06/09 12:40:00;;;;;;;;;;;;;;;25.31;54.45;94265.28;5094680;28;1133;-50
2022/06/09 12:42:31;;;;;;;;;;;;;;;25.10;52.83;94268.00;5096597;28;972;-50
2022/06/09 12:45:06;;;;;;;;;;;;;;;24.86;54.92;94264.16;5096678;28;1052;-50
2022/06/09 12:47:33;;;;;;;;;;;;;;;24.95;55.77;94254.31;5095859;28;1910;-50
2022/06/09 12:50:00;;;;;;;;;;;;;;;25.11;57.14;94252.41;5096218;28;1434;-49
2022/06/09 12:52:40;;;;;;;;;;;;;;;24.94;55.17;94249.94;5096096;28;936;-49
2022/06/09 12:55:15;;;;;;;;;;;;;;;24.99;58.85;94251.88;5096296;28;1345;-49
2022/06/09 12:57:50;;;;;;;;;;;;;;;24.99;59.98;94238.19;5095624;28;1112;-50
2022/06/09 13:00:18;;;;;;;;;;;;;;;24.83;56.04;94232.69;5096327;28;1056;-49
2022/06/09 13:02:45;;;;;;;;;;;;;;;24.69;56.95;94226.97;5096242;28;1105;-49
2022/06/09 13:05:46;;;;;;;;;;;;;;;24.61;57.25;94229.44;5095968;28;1189;-49
2022/06/09 13:08:17;;;;;;;;;;;;;;;24.79;54.45;94219.88;5033219;28;1397;-49
2022/06/09 13:10:45;;;;;;;;;;;;;;;24.73;54.38;94217.13;5068538;28;1021;-49
2022/06/09 13:13:20;;;;;;;;;;;;;;;25.01;57.62;94223.16;5075620;28;964;-49
2022/06/09 13:15:54;;;;;;;;;;;;;;;25.20;53.41;94214.38;5075341;28;1010;-49
2022/06/09 13:18:41;;;;;;;;;;;;;;;25.24;57.46;94210.84;5082647;28;1143;-49
2022/06/09 13:21:18;;;;;;;;;;;;;;;25.25;55.84;94217.97;5095658;28;1725;-54
2022/06/09 13:23:46;;;;;;;;;;;;;;;25.34;55.89;94215.47;5095642;28;1044;-49
2022/06/09 13:26:14;;;;;;;;;;;;;;;25.19;56.03;94213.53;5095435;28;1946;-49
2022/06/09 13:28:44;;;;;;;;;;;;;;;25.13;57.24;94210.00;5094987;28;1094;-49
2022/06/09 13:31:29;;;;;;;;;;;;;;;25.31;55.55;94199.63;5095389;28;1091;-49
2022/06/09 13:33:57;;;;;;;;;;;;;;;25.50;55.61;94200.69;5095094;28;2946;-49